createdAt,value
2018-12-19T00:00:43.927Z,-1.70
2018-12-19T00:01:52.026Z,-1.77
2018-12-19T00:03:00.034Z,-1.73
2018-12-19T00:04:08.117Z,-1.73
2018-12-19T00:05:16.131Z,-1.74
2018-12-19T00:06:24.215Z,-1.73
2018-12-19T00:07:32.240Z,-1.79
2018-12-19T00:08:40.307Z,-1.76
2018-12-19T00:09:48.381Z,-1.79
2018-12-19T00:10:56.421Z,-1.77
2018-12-19T00:12:04.447Z,-1.77
2018-12-19T00:13:12.491Z,-1.73
2018-12-19T00:14:20.560Z,-1.77
2018-12-19T00:15:28.643Z,-1.79
2018-12-19T00:16:36.666Z,-1.72
2018-12-19T00:17:44.721Z,-1.80
2018-12-19T00:18:52.760Z,-1.74
2018-12-19T00:20:00.817Z,-1.70
2018-12-19T00:21:08.897Z,-1.77
2018-12-19T00:22:16.937Z,-1.77
2018-12-19T00:23:24.957Z,-1.70
2018-12-19T00:24:33.054Z,-1.79
2018-12-19T00:25:41.070Z,-1.79
2018-12-19T00:26:49.139Z,-1.77
2018-12-19T00:27:57.178Z,-1.74
2018-12-19T00:29:05.211Z,-1.73
2018-12-19T00:30:13.292Z,-1.72
2018-12-19T00:31:21.341Z,-1.72
2018-12-19T00:32:29.400Z,-1.64
2018-12-19T00:33:37.447Z,-1.66
2018-12-19T00:34:45.494Z,-1.67
2018-12-19T00:35:53.584Z,-1.61
2018-12-19T00:37:01.608Z,-1.58
2018-12-19T00:38:09.664Z,-1.55
2018-12-19T00:39:17.714Z,-1.59
2018-12-19T00:40:25.739Z,-1.58
2018-12-19T00:41:33.801Z,-1.55
2018-12-19T00:42:41.868Z,-1.55
2018-12-19T00:43:49.897Z,-1.55
2018-12-19T00:44:57.962Z,-1.46
2018-12-19T00:46:06.008Z,-1.45
2018-12-19T00:47:14.065Z,-1.46
2018-12-19T00:48:22.122Z,-1.40
2018-12-19T00:49:30.176Z,-1.46
2018-12-19T00:50:38.215Z,-1.38
2018-12-19T00:51:46.287Z,-1.43
2018-12-19T00:52:54.344Z,-1.34
2018-12-19T00:54:02.390Z,-1.33
2018-12-19T00:55:10.433Z,-1.34
2018-12-19T00:56:18.456Z,-1.33
2018-12-19T00:57:26.537Z,-1.33
2018-12-19T00:58:34.600Z,-1.27
2018-12-19T00:59:42.625Z,-1.27
2018-12-19T01:00:50.723Z,-1.23
2018-12-19T01:01:58.759Z,-1.30
2018-12-19T01:03:06.799Z,-1.40
2018-12-19T01:04:14.834Z,-1.33
2018-12-19T01:05:22.904Z,-1.33
2018-12-19T01:06:30.957Z,-1.38
2018-12-19T01:07:38.996Z,-1.33
2018-12-19T01:08:47.050Z,-1.34
2018-12-19T01:09:55.085Z,-1.43
2018-12-19T01:11:03.152Z,-1.33
2018-12-19T01:12:11.210Z,-1.28
2018-12-19T01:13:19.259Z,-1.35
2018-12-19T01:14:27.326Z,-1.31
2018-12-19T01:15:35.401Z,-1.35
2018-12-19T01:16:43.408Z,-1.40
2018-12-19T01:17:51.475Z,-1.40
2018-12-19T01:18:59.529Z,-1.43
2018-12-19T01:20:07.570Z,-1.38
2018-12-19T01:21:15.606Z,-1.43
2018-12-19T01:22:23.698Z,-1.34
2018-12-19T01:23:31.741Z,-1.37
2018-12-19T01:24:39.799Z,-1.37
2018-12-19T01:25:47.852Z,-1.37
2018-12-19T01:26:55.898Z,-1.35
2018-12-19T01:28:03.960Z,-1.37
2018-12-19T01:29:12.004Z,-1.40
2018-12-19T01:30:20.054Z,-1.31
2018-12-19T01:31:28.112Z,-1.35
2018-12-19T01:32:36.147Z,-1.35
2018-12-19T01:33:44.211Z,-1.27
2018-12-19T01:34:52.261Z,-1.25
2018-12-19T01:36:00.343Z,-1.20
2018-12-19T01:37:08.381Z,-1.17
2018-12-19T01:38:16.422Z,-1.15
2018-12-19T01:39:24.465Z,-1.25
2018-12-19T01:40:32.520Z,-1.17
2018-12-19T01:41:40.579Z,-1.28
2018-12-19T01:42:48.645Z,-1.22
2018-12-19T01:43:56.668Z,-1.15
2018-12-19T01:45:04.711Z,-1.22
2018-12-19T01:46:12.791Z,-1.19
2018-12-19T01:47:20.831Z,-1.34
2018-12-19T01:48:28.868Z,-1.22
2018-12-19T01:49:36.938Z,-1.20
2018-12-19T01:50:45.012Z,-1.17
2018-12-19T01:51:53.032Z,-1.22
2018-12-19T01:53:01.099Z,-1.20
2018-12-19T01:54:09.152Z,-1.16
2018-12-19T01:55:17.222Z,-1.20
2018-12-19T01:56:25.249Z,-1.16
2018-12-19T01:57:33.306Z,-1.30
2018-12-19T01:58:41.358Z,-1.19
2018-12-19T01:59:49.415Z,-1.22
2018-12-19T02:00:57.510Z,-1.22
2018-12-19T02:02:05.555Z,-1.19
2018-12-19T02:03:13.577Z,-1.15
2018-12-19T02:04:21.617Z,-1.20
2018-12-19T02:05:29.692Z,-1.23
2018-12-19T02:06:37.729Z,-1.20
2018-12-19T02:07:45.809Z,-1.22
2018-12-19T02:08:53.871Z,-1.23
2018-12-19T02:10:01.902Z,-1.23
2018-12-19T02:11:09.929Z,-1.30
2018-12-19T02:12:17.974Z,-1.20
2018-12-19T02:13:26.060Z,-1.22
2018-12-19T02:14:34.110Z,-1.19
2018-12-19T02:15:42.140Z,-1.13
2018-12-19T02:16:50.203Z,-1.16
2018-12-19T02:17:58.249Z,-1.12
2018-12-19T02:19:06.318Z,-1.22
2018-12-19T02:20:14.340Z,-1.09
2018-12-19T02:21:22.421Z,-1.19
2018-12-19T02:22:30.458Z,-1.15
2018-12-19T02:23:38.518Z,-1.28
2018-12-19T02:24:46.554Z,-1.20
2018-12-19T02:25:54.630Z,-1.28
2018-12-19T02:27:02.638Z,-1.20
2018-12-19T02:28:10.720Z,-1.27
2018-12-19T02:29:18.824Z,-1.35
2018-12-19T02:30:26.834Z,-1.27
2018-12-19T02:31:34.880Z,-1.20
2018-12-19T02:32:42.943Z,-1.19
2018-12-19T02:33:50.957Z,-1.20
2018-12-19T02:34:59.026Z,-1.20
2018-12-19T02:36:07.079Z,-1.12
2018-12-19T02:37:15.129Z,-1.23
2018-12-19T02:38:23.190Z,-1.23
2018-12-19T02:39:36.052Z,-1.15
2018-12-19T02:40:39.290Z,-1.27
2018-12-19T02:41:47.344Z,-1.20
2018-12-19T02:42:55.398Z,-1.16
2018-12-19T02:44:03.441Z,-1.17
2018-12-19T02:45:11.518Z,-1.15
2018-12-19T02:46:19.562Z,-1.02
2018-12-19T02:47:27.614Z,-1.16
2018-12-19T02:48:35.639Z,-1.09
2018-12-19T02:49:43.704Z,-1.05
2018-12-19T02:50:51.757Z,-1.09
2018-12-19T02:51:59.830Z,-1.16
2018-12-19T02:53:07.872Z,-1.23
2018-12-19T02:54:15.918Z,-1.09
2018-12-19T02:55:23.978Z,-1.23
2018-12-19T02:56:32.037Z,-1.23
2018-12-19T02:57:40.073Z,-1.22
2018-12-19T02:58:48.129Z,-1.25
2018-12-19T02:59:56.184Z,-1.23
2018-12-19T03:01:04.251Z,-1.28
2018-12-19T03:02:12.308Z,-1.35
2018-12-19T03:03:20.327Z,-1.37
2018-12-19T03:04:28.397Z,-1.38
2018-12-19T03:05:36.447Z,-1.27
2018-12-19T03:06:44.492Z,-1.33
2018-12-19T03:07:52.558Z,-1.34
2018-12-19T03:09:00.618Z,-1.33
2018-12-19T03:10:08.675Z,-1.34
2018-12-19T03:11:16.715Z,-1.34
2018-12-19T03:12:24.726Z,-1.33
2018-12-19T03:13:32.830Z,-1.38
2018-12-19T03:14:40.875Z,-1.40
2018-12-19T03:15:48.924Z,-1.35
2018-12-19T03:16:56.967Z,-1.34
2018-12-19T03:18:04.987Z,-1.34
2018-12-19T03:19:13.075Z,-1.40
2018-12-19T03:20:21.122Z,-1.35
2018-12-19T03:21:29.178Z,-1.38
2018-12-19T03:22:37.317Z,-1.33
2018-12-19T03:23:45.301Z,-1.33
2018-12-19T03:24:53.338Z,-1.33
2018-12-19T03:26:01.371Z,-1.34
2018-12-19T03:27:09.428Z,-1.30
2018-12-19T03:28:17.496Z,-1.34
2018-12-19T03:29:25.564Z,-1.33
2018-12-19T03:30:33.611Z,-1.34
2018-12-19T03:31:41.654Z,-1.37
2018-12-19T03:32:49.702Z,-1.33
2018-12-19T03:33:57.776Z,-1.33
2018-12-19T03:35:05.815Z,-1.34
2018-12-19T03:36:13.862Z,-1.27
2018-12-19T03:37:21.913Z,-1.35
2018-12-19T03:38:29.935Z,-1.33
2018-12-19T03:39:38.027Z,-1.33
2018-12-19T03:40:46.050Z,-1.35
2018-12-19T03:41:54.120Z,-1.31
2018-12-19T03:43:02.194Z,-1.33
2018-12-19T03:44:10.211Z,-1.27
2018-12-19T03:45:18.287Z,-1.40
2018-12-19T03:46:26.314Z,-1.23
2018-12-19T03:47:34.389Z,-1.37
2018-12-19T03:48:42.437Z,-1.33
2018-12-19T03:49:50.519Z,-1.35
2018-12-19T03:50:58.543Z,-1.45
2018-12-19T03:52:06.589Z,-1.38
2018-12-19T03:53:14.641Z,-1.35
2018-12-19T03:54:22.696Z,-1.38
2018-12-19T03:55:30.766Z,-1.35
2018-12-19T03:56:38.807Z,-1.43
2018-12-19T03:57:46.848Z,-1.34
2018-12-19T03:58:54.896Z,-1.35
2018-12-19T04:00:02.944Z,-1.41
2018-12-19T04:01:11.005Z,-1.37
2018-12-19T04:02:19.064Z,-1.41
2018-12-19T04:03:27.107Z,-1.35
2018-12-19T04:04:35.144Z,-1.34
2018-12-19T04:05:43.213Z,-1.31
2018-12-19T04:06:51.279Z,-1.33
2018-12-19T04:07:59.317Z,-1.35
2018-12-19T04:09:07.389Z,-1.27
2018-12-19T04:10:15.421Z,-1.30
2018-12-19T04:11:23.494Z,-1.20
2018-12-19T04:12:31.526Z,-1.12
2018-12-19T04:13:39.580Z,-1.25
2018-12-19T04:14:47.639Z,-1.17
2018-12-19T04:15:55.708Z,-1.15
2018-12-19T04:17:03.753Z,-1.10
2018-12-19T04:18:11.804Z,-1.05
2018-12-19T04:19:19.872Z,-1.07
2018-12-19T04:20:27.888Z,-1.04
2018-12-19T04:21:35.949Z,-1.04
2018-12-19T04:22:44.088Z,-1.07
2018-12-19T04:23:52.054Z,-0.98
2018-12-19T04:25:00.131Z,-1.01
2018-12-19T04:26:08.170Z,-1.04
2018-12-19T04:27:16.223Z,-1.01
2018-12-19T04:28:24.258Z,-1.01
2018-12-19T04:29:32.331Z,-1.10
2018-12-19T04:30:40.371Z,-1.01
2018-12-19T04:31:48.438Z,-1.01
2018-12-19T04:32:56.498Z,-0.98
2018-12-19T04:34:04.523Z,-0.92
2018-12-19T04:35:12.593Z,-0.89
2018-12-19T04:36:20.614Z,-0.86
2018-12-19T04:37:28.689Z,-0.91
2018-12-19T04:38:36.746Z,-0.92
2018-12-19T04:39:44.797Z,-0.78
2018-12-19T04:40:52.853Z,-0.83
2018-12-19T04:42:00.895Z,-0.73
2018-12-19T04:43:08.954Z,-0.69
2018-12-19T04:44:16.990Z,-0.70
2018-12-19T04:45:25.086Z,-0.69
2018-12-19T04:46:33.125Z,-0.78
2018-12-19T04:47:41.190Z,-0.65
2018-12-19T04:48:49.211Z,-0.69
2018-12-19T04:49:57.276Z,-0.67
2018-12-19T04:51:05.327Z,-0.54
2018-12-19T04:52:13.384Z,-0.55
2018-12-19T04:53:21.419Z,-0.60
2018-12-19T04:54:29.479Z,-0.60
2018-12-19T04:55:37.557Z,-0.52
2018-12-19T04:56:45.585Z,-0.46
2018-12-19T04:57:53.645Z,-0.52
2018-12-19T04:59:01.728Z,-0.49
2018-12-19T05:00:09.744Z,-0.54
2018-12-19T05:01:17.799Z,-0.60
2018-12-19T05:02:25.825Z,-0.52
2018-12-19T05:03:33.904Z,-0.44
2018-12-19T05:04:41.965Z,-0.54
2018-12-19T05:05:49.989Z,-0.49
2018-12-19T05:06:58.057Z,-0.43
2018-12-19T05:08:06.110Z,-0.54
2018-12-19T05:09:14.156Z,-0.55
2018-12-19T05:10:22.216Z,-0.54
2018-12-19T05:11:30.290Z,-0.47
2018-12-19T05:12:38.316Z,-0.54
2018-12-19T05:13:46.372Z,-0.57
2018-12-19T05:14:54.443Z,-0.46
2018-12-19T05:16:02.482Z,-0.60
2018-12-19T05:17:10.540Z,-0.55
2018-12-19T05:18:18.572Z,-0.54
2018-12-19T05:19:26.666Z,-0.58
2018-12-19T05:20:34.689Z,-0.52
2018-12-19T05:21:42.741Z,-0.51
2018-12-19T05:22:50.801Z,-0.55
2018-12-19T05:23:58.841Z,-0.51
2018-12-19T05:25:06.906Z,-0.55
2018-12-19T05:26:14.947Z,-0.52
2018-12-19T05:27:22.998Z,-0.43
2018-12-19T05:28:31.062Z,-0.46
2018-12-19T05:29:39.118Z,-0.58
2018-12-19T05:30:47.164Z,-0.49
2018-12-19T05:31:55.214Z,-0.54
2018-12-19T05:33:03.271Z,-0.49
2018-12-19T05:34:11.331Z,-0.57
2018-12-19T05:35:19.368Z,-0.49
2018-12-19T05:36:27.430Z,-0.52
2018-12-19T05:37:35.450Z,-0.51
2018-12-19T05:38:43.531Z,-0.49
2018-12-19T05:39:51.586Z,-0.52
2018-12-19T05:40:59.668Z,-0.52
2018-12-19T05:42:07.689Z,-0.52
2018-12-19T05:43:15.719Z,-0.54
2018-12-19T05:44:23.795Z,-0.52
2018-12-19T05:45:31.835Z,-0.57
2018-12-19T05:46:39.898Z,-0.62
2018-12-19T05:47:47.947Z,-0.64
2018-12-19T05:48:56.001Z,-0.65
2018-12-19T05:50:04.063Z,-0.62
2018-12-19T05:51:12.115Z,-0.67
2018-12-19T05:52:20.174Z,-0.61
2018-12-19T05:53:28.210Z,-0.69
2018-12-19T05:54:36.260Z,-0.65
2018-12-19T05:55:44.339Z,-0.65
2018-12-19T05:56:52.371Z,-0.65
2018-12-19T05:58:00.423Z,-0.58
2018-12-19T05:59:08.514Z,-0.65
2018-12-19T06:00:16.543Z,-0.65
2018-12-19T06:01:24.571Z,-0.58
2018-12-19T06:02:32.650Z,-0.55
2018-12-19T06:03:40.688Z,-0.49
2018-12-19T06:04:48.733Z,-0.52
2018-12-19T06:05:56.793Z,-0.51
2018-12-19T06:07:04.850Z,-0.55
2018-12-19T06:08:12.888Z,-0.52
2018-12-19T06:09:20.942Z,-0.57
2018-12-19T06:10:29.015Z,-0.58
2018-12-19T06:11:37.068Z,-0.55
2018-12-19T06:12:45.104Z,-0.43
2018-12-19T06:13:53.165Z,-0.54
2018-12-19T06:15:01.224Z,-0.55
2018-12-19T06:16:09.285Z,-0.42
2018-12-19T06:17:17.332Z,-0.60
2018-12-19T06:18:25.407Z,-0.52
2018-12-19T06:19:33.427Z,-0.54
2018-12-19T06:20:41.481Z,-0.49
2018-12-19T06:21:49.547Z,-0.42
2018-12-19T06:22:57.591Z,-0.42
2018-12-19T06:24:05.635Z,-0.49
2018-12-19T06:25:13.714Z,-0.57
2018-12-19T06:26:21.728Z,-0.55
2018-12-19T06:27:29.797Z,-0.49
2018-12-19T06:28:37.854Z,-0.46
2018-12-19T06:29:45.896Z,-0.55
2018-12-19T06:30:53.960Z,-0.51
2018-12-19T06:32:02.010Z,-0.55
2018-12-19T06:33:10.069Z,-0.42
2018-12-19T06:34:18.118Z,-0.42
2018-12-19T06:35:26.366Z,-0.58
2018-12-19T06:36:34.563Z,-0.58
2018-12-19T06:37:42.262Z,-0.69
2018-12-19T06:38:50.551Z,-0.67
2018-12-19T06:39:58.515Z,-0.62
2018-12-19T06:41:06.445Z,-0.69
2018-12-19T06:42:14.475Z,-0.67
2018-12-19T06:43:22.568Z,-0.70
2018-12-19T06:44:30.611Z,-0.73
2018-12-19T06:45:38.644Z,-0.73
2018-12-19T06:46:46.690Z,-0.78
2018-12-19T06:47:54.763Z,-0.70
2018-12-19T06:49:02.795Z,-0.78
2018-12-19T06:50:10.854Z,-0.70
2018-12-19T06:51:19.005Z,-0.76
2018-12-19T06:52:26.991Z,-0.75
2018-12-19T06:53:35.035Z,-0.72
2018-12-19T06:54:43.067Z,-0.80
2018-12-19T06:55:51.138Z,-0.78
2018-12-19T06:56:59.184Z,-0.69
2018-12-19T06:58:07.959Z,-0.73
2018-12-19T06:59:15.285Z,-0.72
2018-12-19T07:00:23.333Z,-0.73
2018-12-19T07:01:31.390Z,-0.70
2018-12-19T07:02:39.434Z,-0.67
2018-12-19T07:03:47.502Z,-0.72
2018-12-19T07:04:55.529Z,-0.65
2018-12-19T07:06:03.611Z,-0.69
2018-12-19T07:07:11.642Z,-0.72
2018-12-19T07:08:20.099Z,-0.57
2018-12-19T07:09:27.755Z,-0.58
2018-12-19T07:10:39.043Z,-0.44
2018-12-19T07:11:44.320Z,-0.49
2018-12-19T07:12:51.931Z,-0.43
2018-12-19T07:14:00.598Z,-0.55
2018-12-19T07:15:08.019Z,-0.46
2018-12-19T07:16:16.075Z,-0.47
2018-12-19T07:17:24.134Z,-0.43
2018-12-19T07:18:32.174Z,-0.40
2018-12-19T07:19:40.245Z,-0.43
2018-12-19T07:20:48.326Z,-0.37
2018-12-19T07:21:56.342Z,-0.34
2018-12-19T07:23:04.403Z,-0.34
2018-12-19T07:24:13.079Z,-0.36
2018-12-19T07:25:20.662Z,-0.31
2018-12-19T07:26:28.548Z,-0.33
2018-12-19T07:27:36.642Z,-0.28
2018-12-19T07:28:44.667Z,-0.40
2018-12-19T07:29:52.725Z,-0.42
2018-12-19T07:31:00.894Z,-0.31
2018-12-19T07:32:08.843Z,-0.52
2018-12-19T07:33:16.859Z,-0.40
2018-12-19T07:34:24.924Z,-0.31
2018-12-19T07:35:32.975Z,-0.43
2018-12-19T07:36:41.025Z,-0.42
2018-12-19T07:37:49.339Z,-0.36
2018-12-19T07:38:57.743Z,-0.31
2018-12-19T07:40:05.638Z,-0.34
2018-12-19T07:41:13.242Z,-0.31
2018-12-19T07:42:21.942Z,-0.29
2018-12-19T07:43:31.300Z,-0.33
2018-12-19T07:44:37.389Z,-0.34
2018-12-19T07:45:45.443Z,-0.29
2018-12-19T07:46:53.529Z,-0.36
2018-12-19T07:48:01.567Z,-0.29
2018-12-19T07:49:09.621Z,-0.31
2018-12-19T07:50:18.303Z,-0.23
2018-12-19T07:51:25.698Z,-0.21
2018-12-19T07:52:33.758Z,-0.23
2018-12-19T07:53:41.836Z,-0.25
2018-12-19T07:54:49.875Z,-0.19
2018-12-19T07:55:57.931Z,-0.22
2018-12-19T07:57:05.986Z,-0.22
2018-12-19T07:58:14.035Z,-0.22
2018-12-19T07:59:22.113Z,-0.23
2018-12-19T08:00:30.148Z,-0.25
2018-12-19T08:01:38.186Z,-0.25
2018-12-19T08:02:46.267Z,-0.14
2018-12-19T08:03:54.313Z,-0.10
2018-12-19T08:05:02.367Z,-0.19
2018-12-19T08:06:10.424Z,-0.11
2018-12-19T08:07:18.473Z,-0.14
2018-12-19T08:08:26.537Z,-0.03
2018-12-19T08:09:34.802Z,-0.10
2018-12-19T08:10:42.623Z,-0.07
2018-12-19T08:11:50.719Z,-0.10
2018-12-19T08:12:58.734Z,-0.05
2018-12-19T08:14:06.789Z,0.03
2018-12-19T08:15:14.838Z,0.04
2018-12-19T08:16:22.889Z,-0.07
2018-12-19T08:17:30.925Z,0.02
2018-12-19T08:18:38.996Z,-0.04
2018-12-19T08:19:47.055Z,-0.05
2018-12-19T08:20:55.100Z,0.14
2018-12-19T08:22:03.171Z,0.10
2018-12-19T08:23:11.355Z,0.11
2018-12-19T08:24:19.248Z,0.18
2018-12-19T08:25:27.339Z,0.17
2018-12-19T08:26:35.360Z,0.14
2018-12-19T08:27:43.742Z,0.21
2018-12-19T08:28:51.488Z,0.23
2018-12-19T08:29:59.540Z,0.28
2018-12-19T08:31:07.583Z,0.31
2018-12-19T08:32:15.641Z,0.24
2018-12-19T08:33:23.699Z,0.28
2018-12-19T08:34:32.309Z,0.36
2018-12-19T08:35:39.796Z,0.42
2018-12-19T08:36:47.839Z,0.42
2018-12-19T08:37:55.920Z,0.38
2018-12-19T08:39:04.166Z,0.42
2018-12-19T08:40:12.158Z,0.44
2018-12-19T08:41:20.062Z,0.42
2018-12-19T08:42:28.094Z,0.58
2018-12-19T08:43:36.201Z,0.68
2018-12-19T08:44:44.209Z,0.61
2018-12-19T08:45:52.279Z,0.60
2018-12-19T08:47:00.336Z,0.70
2018-12-19T08:48:08.400Z,0.58
2018-12-19T08:49:16.744Z,0.68
2018-12-19T08:50:24.521Z,0.66
2018-12-19T08:51:32.548Z,0.65
2018-12-19T08:52:40.813Z,0.62
2018-12-19T08:53:48.623Z,0.69
2018-12-19T08:54:56.709Z,0.66
2018-12-19T08:56:05.121Z,0.61
2018-12-19T08:57:12.827Z,0.69
2018-12-19T08:58:20.914Z,0.68
2018-12-19T08:59:29.269Z,0.73
2018-12-19T09:00:37.011Z,0.70
2018-12-19T09:01:45.098Z,0.83
2018-12-19T09:02:53.184Z,0.84
2018-12-19T09:04:01.455Z,0.83
2018-12-19T09:05:09.288Z,0.79
2018-12-19T09:06:17.372Z,0.84
2018-12-19T09:07:25.392Z,0.91
2018-12-19T09:08:33.799Z,0.93
2018-12-19T09:09:41.395Z,0.91
2018-12-19T09:10:49.458Z,0.88
2018-12-19T09:11:57.506Z,0.86
2018-12-19T09:13:05.562Z,0.93
2018-12-19T09:14:13.604Z,0.91
2018-12-19T09:15:27.463Z,0.90
2018-12-19T09:16:29.703Z,0.90
2018-12-19T09:17:37.796Z,1.00
2018-12-19T09:18:45.815Z,1.02
2018-12-19T09:19:53.894Z,1.05
2018-12-19T09:21:01.933Z,1.05
2018-12-19T09:22:09.999Z,1.06
2018-12-19T09:23:18.047Z,1.00
2018-12-19T09:24:26.096Z,1.05
2018-12-19T09:25:34.144Z,1.08
2018-12-19T09:26:42.200Z,1.12
2018-12-19T09:27:50.260Z,1.15
2018-12-19T09:28:58.310Z,1.18
2018-12-19T09:30:06.380Z,1.18
2018-12-19T09:31:14.406Z,1.23
2018-12-19T09:32:22.464Z,1.22
2018-12-19T09:33:30.551Z,1.29
2018-12-19T09:34:38.601Z,1.36
2018-12-19T09:35:46.618Z,1.37
2018-12-19T09:36:54.680Z,1.41
2018-12-19T09:38:02.736Z,1.41
2018-12-19T09:39:10.806Z,1.41
2018-12-19T09:40:18.866Z,1.42
2018-12-19T09:41:26.914Z,1.47
2018-12-19T09:42:34.952Z,1.51
2018-12-19T09:43:43.016Z,1.54
2018-12-19T09:44:51.089Z,1.58
2018-12-19T09:45:59.118Z,1.65
2018-12-19T09:47:07.181Z,1.65
2018-12-19T09:48:15.236Z,1.73
2018-12-19T09:49:23.284Z,1.79
2018-12-19T09:50:32.288Z,1.95
2018-12-19T09:51:39.428Z,1.90
2018-12-19T09:52:47.436Z,1.93
2018-12-19T09:53:55.505Z,2.03
2018-12-19T09:55:03.581Z,1.93
2018-12-19T09:56:11.631Z,2.03
2018-12-19T09:57:19.684Z,2.05
2018-12-19T09:58:27.727Z,2.17
2018-12-19T09:59:35.789Z,2.14
2018-12-19T10:00:43.846Z,2.20
2018-12-19T10:01:51.936Z,2.18
2018-12-19T10:02:59.933Z,2.25
2018-12-19T10:04:08.016Z,2.24
2018-12-19T10:05:16.054Z,2.17
2018-12-19T10:06:24.124Z,2.25
2018-12-19T10:07:32.172Z,2.24
2018-12-19T10:08:40.202Z,2.21
2018-12-19T10:09:48.265Z,2.25
2018-12-19T10:10:56.342Z,2.30
2018-12-19T10:12:04.425Z,2.38
2018-12-19T10:13:12.442Z,2.52
2018-12-19T10:14:20.497Z,2.46
2018-12-19T10:15:28.528Z,2.45
2018-12-19T10:16:36.619Z,2.43
2018-12-19T10:17:44.643Z,2.57
2018-12-19T10:18:52.723Z,2.56
2018-12-19T10:20:00.771Z,2.54
2018-12-19T10:21:08.837Z,2.54
2018-12-19T10:22:16.880Z,2.45
2018-12-19T10:23:24.924Z,2.48
2018-12-19T10:24:33.011Z,2.46
2018-12-19T10:25:41.071Z,2.46
2018-12-19T10:26:49.119Z,2.60
2018-12-19T10:27:57.158Z,2.57
2018-12-19T10:29:05.240Z,2.59
2018-12-19T10:30:13.270Z,2.59
2018-12-19T10:31:21.331Z,2.75
2018-12-19T10:32:29.386Z,2.71
2018-12-19T10:33:37.470Z,2.77
2018-12-19T10:34:45.520Z,2.78
2018-12-19T10:35:53.848Z,2.77
2018-12-19T10:37:01.626Z,2.75
2018-12-19T10:38:09.710Z,2.81
2018-12-19T10:39:17.702Z,2.82
2018-12-19T10:40:25.842Z,2.78
2018-12-19T10:41:33.843Z,2.79
2018-12-19T10:42:41.892Z,2.85
2018-12-19T10:43:49.964Z,2.67
2018-12-19T10:44:58.022Z,2.75
2018-12-19T10:46:06.205Z,2.85
2018-12-19T10:47:14.109Z,2.77
2018-12-19T10:48:22.147Z,2.81
2018-12-19T10:49:30.267Z,2.85
2018-12-19T10:50:38.281Z,2.79
2018-12-19T10:51:46.331Z,2.75
2018-12-19T10:52:54.398Z,2.78
2018-12-19T10:54:02.692Z,2.79
2018-12-19T10:55:10.528Z,2.89
2018-12-19T10:56:19.385Z,2.89
2018-12-19T10:57:26.636Z,2.95
2018-12-19T10:58:34.753Z,2.89
2018-12-19T10:59:42.728Z,2.99
2018-12-19T11:00:50.772Z,3.03
2018-12-19T11:01:59.443Z,3.06
2018-12-19T11:03:06.912Z,3.14
2018-12-19T11:04:14.937Z,3.20
2018-12-19T11:05:23.007Z,3.26
2018-12-19T11:06:31.039Z,3.33
2018-12-19T11:07:39.105Z,3.35
2018-12-19T11:08:47.177Z,3.42
2018-12-19T11:09:55.245Z,3.48
2018-12-19T11:11:03.267Z,3.58
2018-12-19T11:12:11.328Z,3.62
2018-12-19T11:13:19.381Z,3.75
2018-12-19T11:14:27.443Z,3.75
2018-12-19T11:15:35.531Z,3.73
2018-12-19T11:16:44.804Z,3.78
2018-12-19T11:17:51.598Z,3.80
2018-12-19T11:18:59.644Z,3.78
2018-12-19T11:20:07.787Z,3.68
2018-12-19T11:21:15.805Z,3.42
2018-12-19T11:22:23.856Z,3.48
2018-12-19T11:23:31.919Z,3.52
2018-12-19T11:24:39.950Z,3.52
2018-12-19T11:25:48.589Z,3.58
2018-12-19T11:26:56.043Z,3.52
2018-12-19T11:28:04.117Z,3.52
2018-12-19T11:29:12.165Z,3.69
2018-12-19T11:30:20.216Z,3.65
2018-12-19T11:31:28.418Z,3.55
2018-12-19T11:32:36.358Z,3.66
2018-12-19T11:33:44.818Z,3.61
2018-12-19T11:34:52.484Z,3.70
2018-12-19T11:36:01.122Z,3.69
2018-12-19T11:37:09.134Z,3.76
2018-12-19T11:38:16.628Z,3.76
2018-12-19T11:39:24.670Z,3.72
2018-12-19T11:40:33.859Z,3.78
2018-12-19T11:41:40.927Z,3.84
2018-12-19T11:42:48.937Z,3.87
2018-12-19T11:43:56.896Z,3.93
2018-12-19T11:45:04.963Z,4.05
2018-12-19T11:46:13.031Z,4.12
2018-12-19T11:47:21.835Z,4.09
2018-12-19T11:48:29.152Z,4.06
2018-12-19T11:49:37.386Z,4.23
2018-12-19T11:50:46.647Z,4.15
2018-12-19T11:51:53.492Z,4.20
2018-12-19T11:53:01.498Z,4.30
2018-12-19T11:54:09.568Z,4.27
2018-12-19T11:55:17.474Z,4.32
2018-12-19T11:56:25.606Z,4.34
2018-12-19T11:57:34.459Z,4.42
2018-12-19T11:58:41.804Z,4.45
2018-12-19T11:59:49.756Z,4.51
2018-12-19T12:00:57.779Z,4.48
2018-12-19T12:02:05.800Z,4.59
2018-12-19T12:03:13.866Z,4.48
2018-12-19T12:04:21.928Z,4.50
2018-12-19T12:05:29.976Z,4.48
2018-12-19T12:06:38.043Z,4.47
2018-12-19T12:07:46.085Z,4.48
2018-12-19T12:08:54.160Z,4.45
2018-12-19T12:10:02.225Z,4.48
2018-12-19T12:11:10.275Z,4.55
2018-12-19T12:12:18.514Z,4.52
2018-12-19T12:13:26.382Z,4.48
2018-12-19T12:14:34.432Z,4.48
2018-12-19T12:15:42.523Z,4.50
2018-12-19T12:16:50.548Z,4.34
2018-12-19T12:17:58.628Z,4.36
2018-12-19T12:19:06.677Z,4.27
2018-12-19T12:20:14.711Z,4.29
2018-12-19T12:21:22.787Z,4.20
2018-12-19T12:22:30.834Z,4.11
2018-12-19T12:23:38.895Z,4.12
2018-12-19T12:24:47.202Z,4.09
2018-12-19T12:25:55.030Z,4.00
2018-12-19T12:27:03.057Z,4.11
2018-12-19T12:28:11.137Z,3.96
2018-12-19T12:29:19.175Z,3.87
2018-12-19T12:30:27.225Z,3.87
2018-12-19T12:31:35.298Z,3.86
2018-12-19T12:32:43.334Z,3.72
2018-12-19T12:33:51.425Z,3.66
2018-12-19T12:34:59.458Z,3.51
2018-12-19T12:36:07.511Z,3.48
2018-12-19T12:37:15.561Z,3.48
2018-12-19T12:38:23.631Z,3.43
2018-12-19T12:39:31.698Z,3.45
2018-12-19T12:40:39.749Z,3.35
2018-12-19T12:41:52.237Z,3.36
2018-12-19T12:42:55.850Z,3.40
2018-12-19T12:44:03.907Z,3.52
2018-12-19T12:45:11.947Z,3.54
2018-12-19T12:46:19.996Z,3.58
2018-12-19T12:47:28.081Z,3.55
2018-12-19T12:48:36.119Z,3.69
2018-12-19T12:49:44.222Z,3.66
2018-12-19T12:50:52.229Z,3.62
2018-12-19T12:52:00.302Z,3.55
2018-12-19T12:53:08.362Z,3.70
2018-12-19T12:54:16.438Z,3.65
2018-12-19T12:55:24.463Z,3.73
2018-12-19T12:56:32.515Z,3.66
2018-12-19T12:57:40.560Z,3.66
2018-12-19T12:58:48.607Z,3.72
2018-12-19T12:59:56.683Z,3.70
2018-12-19T13:01:04.728Z,3.65
2018-12-19T13:02:12.789Z,3.78
2018-12-19T13:03:20.870Z,3.65
2018-12-19T13:04:28.927Z,3.72
2018-12-19T13:05:36.957Z,3.66
2018-12-19T13:06:45.036Z,3.78
2018-12-19T13:07:53.090Z,3.73
2018-12-19T13:09:01.185Z,3.79
2018-12-19T13:10:09.177Z,3.87
2018-12-19T13:11:17.236Z,3.88
2018-12-19T13:12:25.298Z,3.93
2018-12-19T13:13:33.340Z,3.87
2018-12-19T13:14:41.409Z,3.91
2018-12-19T13:15:49.459Z,3.91
2018-12-19T13:16:57.529Z,3.93
2018-12-19T13:18:05.648Z,3.93
2018-12-19T13:19:13.636Z,3.94
2018-12-19T13:20:21.680Z,4.02
2018-12-19T13:21:29.742Z,3.93
2018-12-19T13:22:37.799Z,4.00
2018-12-19T13:23:45.848Z,4.08
2018-12-19T13:24:53.917Z,4.08
2018-12-19T13:26:01.962Z,4.11
2018-12-19T13:27:10.052Z,4.09
2018-12-19T13:28:18.103Z,4.04
2018-12-19T13:29:26.134Z,4.18
2018-12-19T13:30:34.200Z,4.06
2018-12-19T13:31:42.250Z,4.12
2018-12-19T13:32:50.328Z,4.15
2018-12-19T13:33:58.370Z,4.02
2018-12-19T13:35:06.394Z,4.12
2018-12-19T13:36:14.480Z,4.02
2018-12-19T13:37:22.522Z,4.06
2018-12-19T13:38:30.580Z,3.93
2018-12-19T13:39:38.646Z,3.98
2018-12-19T13:40:46.690Z,3.90
2018-12-19T13:41:54.746Z,4.04
2018-12-19T13:43:02.805Z,4.08
2018-12-19T13:44:10.879Z,4.11
2018-12-19T13:45:18.934Z,4.05
2018-12-19T13:46:26.957Z,4.15
2018-12-19T13:47:35.017Z,4.15
2018-12-19T13:48:43.084Z,4.11
2018-12-19T13:49:51.147Z,4.08
2018-12-19T13:50:59.201Z,4.05
2018-12-19T13:52:07.270Z,4.11
2018-12-19T13:53:15.311Z,4.06
2018-12-19T13:54:23.368Z,4.20
2018-12-19T13:55:31.426Z,4.22
2018-12-19T13:56:39.496Z,4.15
2018-12-19T13:57:47.537Z,4.16
2018-12-19T13:58:55.590Z,4.18
2018-12-19T14:00:03.662Z,4.26
2018-12-19T14:01:11.705Z,4.14
2018-12-19T14:02:19.745Z,4.18
2018-12-19T14:03:27.810Z,4.20
2018-12-19T14:04:35.870Z,4.23
2018-12-19T14:05:43.934Z,4.22
2018-12-19T14:06:51.991Z,4.24
2018-12-19T14:08:00.049Z,4.20
2018-12-19T14:09:08.108Z,4.15
2018-12-19T14:10:16.142Z,4.16
2018-12-19T14:11:24.208Z,4.16
2018-12-19T14:12:32.260Z,4.16
2018-12-19T14:13:40.313Z,4.20
2018-12-19T14:14:48.362Z,4.30
2018-12-19T14:15:56.453Z,4.22
2018-12-19T14:17:04.488Z,4.23
2018-12-19T14:18:12.539Z,4.26
2018-12-19T14:19:20.627Z,4.18
2018-12-19T14:20:28.647Z,4.32
2018-12-19T14:21:36.714Z,4.26
2018-12-19T14:22:44.767Z,4.20
2018-12-19T14:23:52.841Z,4.29
2018-12-19T14:25:00.888Z,4.16
2018-12-19T14:26:08.919Z,4.26
2018-12-19T14:27:17.009Z,4.22
2018-12-19T14:28:25.031Z,4.22
2018-12-19T14:29:33.122Z,4.06
2018-12-19T14:30:41.172Z,4.08
2018-12-19T14:31:49.218Z,4.05
2018-12-19T14:32:57.270Z,4.06
2018-12-19T14:34:05.308Z,4.08
2018-12-19T14:35:13.397Z,4.09
2018-12-19T14:36:21.451Z,4.04
2018-12-19T14:37:29.530Z,4.11
2018-12-19T14:38:37.534Z,3.96
2018-12-19T14:39:45.600Z,3.97
2018-12-19T14:40:53.666Z,3.94
2018-12-19T14:42:02.348Z,3.87
2018-12-19T14:43:09.778Z,3.87
2018-12-19T14:44:17.851Z,3.75
2018-12-19T14:45:25.894Z,3.76
2018-12-19T14:46:33.943Z,3.72
2018-12-19T14:47:42.010Z,3.70
2018-12-19T14:48:50.064Z,3.65